sensor_id;sensor_type;location;lat;lon;timestamp;P1;durP1;ratioP1;P2;durP2;ratioP2
18720;SDS011;9489;50.948;3.114;2023-11-18T00:00:31;19.20;;;13.88;;
18720;SDS011;9489;50.948;3.114;2023-11-18T00:02:58;21.73;;;14.13;;
18720;SDS011;9489;50.948;3.114;2023-11-18T00:05:24;21.10;;;13.50;;
18720;SDS011;9489;50.948;3.114;2023-11-18T00:07:49;18.90;;;13.98;;
18720;SDS011;9489;50.948;3.114;2023-11-18T00:10:15;17.40;;;13.05;;
18720;SDS011;9489;50.948;3.114;2023-11-18T00:12:42;16.52;;;12.55;;
18720;SDS011;9489;50.948;3.114;2023-11-18T00:15:08;18.33;;;12.90;;
18720;SDS011;9489;50.948;3.114;2023-11-18T00:17:36;17.17;;;13.25;;
18720;SDS011;9489;50.948;3.114;2023-11-18T00:20:02;17.65;;;11.93;;
18720;SDS011;9489;50.948;3.114;2023-11-18T00:22:33;18.75;;;11.43;;
18720;SDS011;9489;50.948;3.114;2023-11-18T00:24:59;14.65;;;12.20;;
18720;SDS011;9489;50.948;3.114;2023-11-18T00:27:25;19.75;;;11.50;;
18720;SDS011;9489;50.948;3.114;2023-11-18T00:29:50;14.82;;;11.90;;
18720;SDS011;9489;50.948;3.114;2023-11-18T00:32:18;16.15;;;11.10;;
18720;SDS011;9489;50.948;3.114;2023-11-18T00:34:44;31.98;;;21.23;;
18720;SDS011;9489;50.948;3.114;2023-11-18T00:37:09;25.70;;;16.98;;
18720;SDS011;9489;50.948;3.114;2023-11-18T00:39:35;24.23;;;12.50;;
18720;SDS011;9489;50.948;3.114;2023-11-18T00:42:02;15.50;;;10.43;;
18720;SDS011;9489;50.948;3.114;2023-11-18T00:44:27;41.28;;;26.02;;
18720;SDS011;9489;50.948;3.114;2023-11-18T00:46:53;31.83;;;22.25;;
18720;SDS011;9489;50.948;3.114;2023-11-18T00:49:19;41.80;;;24.10;;
18720;SDS011;9489;50.948;3.114;2023-11-18T00:51:45;25.45;;;17.42;;
18720;SDS011;9489;50.948;3.114;2023-11-18T00:54:10;16.27;;;10.60;;
18720;SDS011;9489;50.948;3.114;2023-11-18T00:56:37;17.40;;;10.13;;
18720;SDS011;9489;50.948;3.114;2023-11-18T00:59:03;18.55;;;10.95;;
18720;SDS011;9489;50.948;3.114;2023-11-18T01:01:31;13.25;;;10.27;;
18720;SDS011;9489;50.948;3.114;2023-11-18T01:03:57;16.23;;;10.82;;
18720;SDS011;9489;50.948;3.114;2023-11-18T01:06:24;16.55;;;9.80;;
18720;SDS011;9489;50.948;3.114;2023-11-18T01:08:53;17.85;;;9.82;;
18720;SDS011;9489;50.948;3.114;2023-11-18T01:11:18;18.40;;;10.15;;
18720;SDS011;9489;50.948;3.114;2023-11-18T01:13:45;16.50;;;10.07;;
18720;SDS011;9489;50.948;3.114;2023-11-18T01:16:14;13.85;;;9.73;;
18720;SDS011;9489;50.948;3.114;2023-11-18T01:18:40;12.82;;;9.07;;
18720;SDS011;9489;50.948;3.114;2023-11-18T01:21:06;16.67;;;9.38;;
18720;SDS011;9489;50.948;3.114;2023-11-18T01:23:34;17.92;;;10.05;;
18720;SDS011;9489;50.948;3.114;2023-11-18T01:26:00;18.02;;;9.18;;
18720;SDS011;9489;50.948;3.114;2023-11-18T01:28:30;10.65;;;8.05;;
18720;SDS011;9489;50.948;3.114;2023-11-18T01:31:05;13.68;;;8.77;;
18720;SDS011;9489;50.948;3.114;2023-11-18T01:33:34;12.57;;;7.88;;
18720;SDS011;9489;50.948;3.114;2023-11-18T01:36:03;14.95;;;8.52;;
18720;SDS011;9489;50.948;3.114;2023-11-18T01:38:29;11.50;;;8.27;;
18720;SDS011;9489;50.948;3.114;2023-11-18T01:40:56;16.33;;;8.50;;
18720;SDS011;9489;50.948;3.114;2023-11-18T01:43:22;14.05;;;8.13;;
18720;SDS011;9489;50.948;3.114;2023-11-18T01:45:47;13.98;;;9.10;;
18720;SDS011;9489;50.948;3.114;2023-11-18T01:48:13;14.43;;;8.60;;
18720;SDS011;9489;50.948;3.114;2023-11-18T01:50:41;10.90;;;8.13;;
18720;SDS011;9489;50.948;3.114;2023-11-18T01:53:08;12.55;;;7.97;;
18720;SDS011;9489;50.948;3.114;2023-11-18T01:55:35;14.88;;;8.05;;
18720;SDS011;9489;50.948;3.114;2023-11-18T01:58:02;13.65;;;7.63;;
18720;SDS011;9489;50.948;3.114;2023-11-18T02:00:37;16.10;;;8.75;;
18720;SDS011;9489;50.948;3.114;2023-11-18T02:03:06;16.45;;;7.70;;
18720;SDS011;9489;50.948;3.114;2023-11-18T02:05:32;12.52;;;8.35;;
18720;SDS011;9489;50.948;3.114;2023-11-18T02:07:58;12.77;;;8.05;;
18720;SDS011;9489;50.948;3.114;2023-11-18T02:10:26;16.75;;;7.97;;
18720;SDS011;9489;50.948;3.114;2023-11-18T02:13:04;17.17;;;8.60;;
18720;SDS011;9489;50.948;3.114;2023-11-18T02:15:38;13.25;;;8.60;;
18720;SDS011;9489;50.948;3.114;2023-11-18T02:18:06;14.07;;;8.50;;
18720;SDS011;9489;50.948;3.114;2023-11-18T02:20:34;13.23;;;8.30;;
18720;SDS011;9489;50.948;3.114;2023-11-18T02:23:02;16.08;;;8.60;;
18720;SDS011;9489;50.948;3.114;2023-11-18T02:25:28;17.10;;;8.38;;
18720;SDS011;9489;50.948;3.114;2023-11-18T02:27:58;11.88;;;8.25;;
18720;SDS011;9489;50.948;3.114;2023-11-18T02:30:23;16.30;;;7.70;;
18720;SDS011;9489;50.948;3.114;2023-11-18T02:35:25;16.15;;;7.47;;
18720;SDS011;9489;50.948;3.114;2023-11-18T02:37:55;15.55;;;7.07;;
18720;SDS011;9489;50.948;3.114;2023-11-18T02:40:27;16.88;;;7.70;;
18720;SDS011;9489;50.948;3.114;2023-11-18T02:43:01;14.27;;;7.03;;
18720;SDS011;9489;50.948;3.114;2023-11-18T02:45:30;13.65;;;6.38;;
18720;SDS011;9489;50.948;3.114;2023-11-18T02:47:57;14.70;;;6.00;;
18720;SDS011;9489;50.948;3.114;2023-11-18T02:50:26;10.25;;;5.97;;
18720;SDS011;9489;50.948;3.114;2023-11-18T02:52:53;10.93;;;6.05;;
18720;SDS011;9489;50.948;3.114;2023-11-18T02:55:19;16.20;;;6.10;;
18720;SDS011;9489;50.948;3.114;2023-11-18T02:57:47;14.43;;;5.95;;
18720;SDS011;9489;50.948;3.114;2023-11-18T03:00:14;12.85;;;6.65;;
18720;SDS011;9489;50.948;3.114;2023-11-18T03:02:47;8.75;;;5.10;;
18720;SDS011;9489;50.948;3.114;2023-11-18T03:05:13;10.43;;;5.68;;
18720;SDS011;9489;50.948;3.114;2023-11-18T03:07:58;11.48;;;5.53;;
18720;SDS011;9489;50.948;3.114;2023-11-18T03:10:23;10.57;;;5.22;;
18720;SDS011;9489;50.948;3.114;2023-11-18T03:12:50;11.38;;;4.60;;
18720;SDS011;9489;50.948;3.114;2023-11-18T03:15:17;10.30;;;4.80;;
18720;SDS011;9489;50.948;3.114;2023-11-18T03:17:44;9.13;;;4.85;;
18720;SDS011;9489;50.948;3.114;2023-11-18T03:20:15;9.50;;;4.50;;
18720;SDS011;9489;50.948;3.114;2023-11-18T03:22:42;9.20;;;4.78;;
18720;SDS011;9489;50.948;3.114;2023-11-18T03:25:09;11.38;;;4.45;;
18720;SDS011;9489;50.948;3.114;2023-11-18T03:27:35;11.88;;;4.80;;
18720;SDS011;9489;50.948;3.114;2023-11-18T03:30:00;10.40;;;5.43;;
18720;SDS011;9489;50.948;3.114;2023-11-18T03:32:26;8.70;;;5.00;;
18720;SDS011;9489;50.948;3.114;2023-11-18T03:34:52;9.70;;;4.38;;
18720;SDS011;9489;50.948;3.114;2023-11-18T03:37:17;10.27;;;5.15;;
18720;SDS011;9489;50.948;3.114;2023-11-18T03:39:44;12.98;;;5.18;;
18720;SDS011;9489;50.948;3.114;2023-11-18T03:42:10;10.73;;;5.72;;
18720;SDS011;9489;50.948;3.114;2023-11-18T03:44:35;12.63;;;4.95;;
18720;SDS011;9489;50.948;3.114;2023-11-18T03:47:02;10.50;;;5.15;;
18720;SDS011;9489;50.948;3.114;2023-11-18T03:49:28;9.80;;;4.60;;
18720;SDS011;9489;50.948;3.114;2023-11-18T03:51:54;10.25;;;4.45;;
18720;SDS011;9489;50.948;3.114;2023-11-18T03:54:19;11.43;;;4.75;;
18720;SDS011;9489;50.948;3.114;2023-11-18T03:56:45;9.43;;;5.45;;
18720;SDS011;9489;50.948;3.114;2023-11-18T03:59:11;8.88;;;5.25;;
18720;SDS011;9489;50.948;3.114;2023-11-18T04:01:36;8.50;;;4.82;;
18720;SDS011;9489;50.948;3.114;2023-11-18T04:04:02;10.23;;;5.45;;
18720;SDS011;9489;50.948;3.114;2023-11-18T04:06:29;11.80;;;5.85;;
18720;SDS011;9489;50.948;3.114;2023-11-18T04:08:54;12.32;;;5.25;;
18720;SDS011;9489;50.948;3.114;2023-11-18T04:11:20;10.10;;;5.47;;
18720;SDS011;9489;50.948;3.114;2023-11-18T04:13:46;11.38;;;5.55;;
18720;SDS011;9489;50.948;3.114;2023-11-18T04:16:12;14.95;;;5.95;;
18720;SDS011;9489;50.948;3.114;2023-11-18T04:18:41;10.05;;;5.20;;
18720;SDS011;9489;50.948;3.114;2023-11-18T04:21:09;10.27;;;5.03;;
18720;SDS011;9489;50.948;3.114;2023-11-18T04:23:40;8.85;;;5.45;;
18720;SDS011;9489;50.948;3.114;2023-11-18T04:26:07;9.32;;;4.90;;
18720;SDS011;9489;50.948;3.114;2023-11-18T04:28:33;8.38;;;4.85;;
18720;SDS011;9489;50.948;3.114;2023-11-18T04:31:02;13.18;;;5.00;;
18720;SDS011;9489;50.948;3.114;2023-11-18T04:33:30;9.85;;;4.78;;
18720;SDS011;9489;50.948;3.114;2023-11-18T04:35:56;11.85;;;4.97;;
18720;SDS011;9489;50.948;3.114;2023-11-18T04:38:25;9.07;;;4.40;;
18720;SDS011;9489;50.948;3.114;2023-11-18T04:40:51;9.38;;;4.70;;
18720;SDS011;9489;50.948;3.114;2023-11-18T04:43:19;7.57;;;4.97;;
18720;SDS011;9489;50.948;3.114;2023-11-18T04:45:45;10.50;;;4.47;;
18720;SDS011;9489;50.948;3.114;2023-11-18T04:48:11;9.30;;;5.00;;
18720;SDS011;9489;50.948;3.114;2023-11-18T04:50:38;8.90;;;4.85;;
18720;SDS011;9489;50.948;3.114;2023-11-18T04:53:04;11.63;;;4.85;;
18720;SDS011;9489;50.948;3.114;2023-11-18T04:55:33;12.02;;;5.43;;
18720;SDS011;9489;50.948;3.114;2023-11-18T04:58:00;9.23;;;5.05;;
18720;SDS011;9489;50.948;3.114;2023-11-18T05:00:26;13.88;;;5.05;;
18720;SDS011;9489;50.948;3.114;2023-11-18T05:02:52;11.00;;;4.80;;
18720;SDS011;9489;50.948;3.114;2023-11-18T05:05:19;8.65;;;4.70;;
18720;SDS011;9489;50.948;3.114;2023-11-18T05:07:44;14.07;;;5.18;;
18720;SDS011;9489;50.948;3.114;2023-11-18T05:10:10;9.65;;;4.47;;
18720;SDS011;9489;50.948;3.114;2023-11-18T05:12:37;10.30;;;4.90;;
18720;SDS011;9489;50.948;3.114;2023-11-18T05:15:03;10.27;;;5.10;;
18720;SDS011;9489;50.948;3.114;2023-11-18T05:17:30;10.60;;;5.10;;
18720;SDS011;9489;50.948;3.114;2023-11-18T05:19:56;9.15;;;5.53;;
18720;SDS011;9489;50.948;3.114;2023-11-18T05:22:21;12.65;;;5.00;;
18720;SDS011;9489;50.948;3.114;2023-11-18T05:24:47;11.27;;;5.68;;
18720;SDS011;9489;50.948;3.114;2023-11-18T05:27:13;9.15;;;4.70;;
18720;SDS011;9489;50.948;3.114;2023-11-18T05:29:39;16.65;;;5.47;;
18720;SDS011;9489;50.948;3.114;2023-11-18T05:32:07;10.82;;;5.55;;
18720;SDS011;9489;50.948;3.114;2023-11-18T05:34:32;7.97;;;5.18;;
18720;SDS011;9489;50.948;3.114;2023-11-18T05:37:00;9.98;;;5.18;;
18720;SDS011;9489;50.948;3.114;2023-11-18T05:39:26;8.55;;;5.22;;
18720;SDS011;9489;50.948;3.114;2023-11-18T05:41:55;11.18;;;5.97;;
18720;SDS011;9489;50.948;3.114;2023-11-18T05:44:24;10.95;;;5.28;;
18720;SDS011;9489;50.948;3.114;2023-11-18T05:46:56;9.13;;;5.18;;
18720;SDS011;9489;50.948;3.114;2023-11-18T05:49:22;12.70;;;5.95;;
18720;SDS011;9489;50.948;3.114;2023-11-18T05:51:49;11.68;;;5.32;;
18720;SDS011;9489;50.948;3.114;2023-11-18T05:54:17;10.55;;;5.30;;
18720;SDS011;9489;50.948;3.114;2023-11-18T05:56:42;9.60;;;5.22;;
18720;SDS011;9489;50.948;3.114;2023-11-18T05:59:08;7.93;;;5.43;;
18720;SDS011;9489;50.948;3.114;2023-11-18T06:01:35;11.20;;;5.72;;
18720;SDS011;9489;50.948;3.114;2023-11-18T06:04:04;10.82;;;5.72;;
18720;SDS011;9489;50.948;3.114;2023-11-18T06:06:33;11.85;;;5.97;;
18720;SDS011;9489;50.948;3.114;2023-11-18T06:08:59;10.40;;;6.22;;
18720;SDS011;9489;50.948;3.114;2023-11-18T06:11:30;9.38;;;6.85;;
18720;SDS011;9489;50.948;3.114;2023-11-18T06:13:56;12.15;;;6.68;;
18720;SDS011;9489;50.948;3.114;2023-11-18T06:16:22;9.82;;;5.78;;
18720;SDS011;9489;50.948;3.114;2023-11-18T06:18:53;11.98;;;7.18;;
18720;SDS011;9489;50.948;3.114;2023-11-18T06:21:20;9.13;;;6.18;;
18720;SDS011;9489;50.948;3.114;2023-11-18T06:23:50;11.55;;;6.00;;
18720;SDS011;9489;50.948;3.114;2023-11-18T06:26:16;11.63;;;6.40;;
18720;SDS011;9489;50.948;3.114;2023-11-18T06:28:45;11.38;;;6.15;;
18720;SDS011;9489;50.948;3.114;2023-11-18T06:31:12;11.50;;;6.03;;
18720;SDS011;9489;50.948;3.114;2023-11-18T06:33:39;13.43;;;6.20;;
18720;SDS011;9489;50.948;3.114;2023-11-18T06:36:09;10.35;;;5.65;;
18720;SDS011;9489;50.948;3.114;2023-11-18T06:38:49;13.02;;;6.22;;
18720;SDS011;9489;50.948;3.114;2023-11-18T06:41:16;11.52;;;7.03;;
18720;SDS011;9489;50.948;3.114;2023-11-18T06:43:44;10.70;;;5.93;;
18720;SDS011;9489;50.948;3.114;2023-11-18T06:46:20;9.98;;;6.55;;
18720;SDS011;9489;50.948;3.114;2023-11-18T06:48:51;12.90;;;6.60;;
18720;SDS011;9489;50.948;3.114;2023-11-18T06:51:22;10.75;;;6.70;;
18720;SDS011;9489;50.948;3.114;2023-11-18T06:53:50;8.75;;;6.68;;
18720;SDS011;9489;50.948;3.114;2023-11-18T06:56:21;15.98;;;7.40;;
18720;SDS011;9489;50.948;3.114;2023-11-18T06:58:50;14.63;;;7.47;;
18720;SDS011;9489;50.948;3.114;2023-11-18T07:01:16;13.73;;;8.45;;
18720;SDS011;9489;50.948;3.114;2023-11-18T07:03:46;16.70;;;9.10;;
18720;SDS011;9489;50.948;3.114;2023-11-18T07:06:19;11.98;;;8.23;;
18720;SDS011;9489;50.948;3.114;2023-11-18T07:08:47;12.10;;;9.20;;
18720;SDS011;9489;50.948;3.114;2023-11-18T07:11:14;16.95;;;9.20;;
18720;SDS011;9489;50.948;3.114;2023-11-18T07:13:41;15.93;;;9.98;;
18720;SDS011;9489;50.948;3.114;2023-11-18T07:16:07;17.02;;;10.15;;
18720;SDS011;9489;50.948;3.114;2023-11-18T07:18:37;16.10;;;10.18;;
18720;SDS011;9489;50.948;3.114;2023-11-18T07:21:03;15.82;;;10.35;;
18720;SDS011;9489;50.948;3.114;2023-11-18T07:23:30;14.10;;;11.10;;
18720;SDS011;9489;50.948;3.114;2023-11-18T07:25:56;16.33;;;10.88;;
18720;SDS011;9489;50.948;3.114;2023-11-18T07:28:23;17.90;;;12.00;;
18720;SDS011;9489;50.948;3.114;2023-11-18T07:30:49;22.80;;;12.52;;
18720;SDS011;9489;50.948;3.114;2023-11-18T07:33:15;14.48;;;12.38;;
18720;SDS011;9489;50.948;3.114;2023-11-18T07:35:42;19.55;;;12.40;;
18720;SDS011;9489;50.948;3.114;2023-11-18T07:38:08;17.25;;;12.00;;
18720;SDS011;9489;50.948;3.114;2023-11-18T07:40:35;17.40;;;12.57;;
18720;SDS011;9489;50.948;3.114;2023-11-18T07:43:03;19.13;;;12.75;;
18720;SDS011;9489;50.948;3.114;2023-11-18T07:45:34;17.20;;;11.80;;
18720;SDS011;9489;50.948;3.114;2023-11-18T07:48:04;15.73;;;11.65;;
18720;SDS011;9489;50.948;3.114;2023-11-18T07:50:34;16.70;;;12.13;;
18720;SDS011;9489;50.948;3.114;2023-11-18T07:53:01;15.60;;;12.00;;
18720;SDS011;9489;50.948;3.114;2023-11-18T07:55:27;18.85;;;12.65;;
18720;SDS011;9489;50.948;3.114;2023-11-18T07:57:53;18.75;;;12.80;;
18720;SDS011;9489;50.948;3.114;2023-11-18T08:00:19;15.73;;;13.52;;
18720;SDS011;9489;50.948;3.114;2023-11-18T08:02:45;14.15;;;11.23;;
18720;SDS011;9489;50.948;3.114;2023-11-18T08:05:11;17.10;;;13.07;;
18720;SDS011;9489;50.948;3.114;2023-11-18T08:07:40;14.60;;;12.52;;
18720;SDS011;9489;50.948;3.114;2023-11-18T08:10:06;17.83;;;12.45;;
18720;SDS011;9489;50.948;3.114;2023-11-18T08:12:37;14.57;;;11.52;;
18720;SDS011;9489;50.948;3.114;2023-11-18T08:15:04;19.23;;;12.15;;
18720;SDS011;9489;50.948;3.114;2023-11-18T08:17:31;19.40;;;12.07;;
18720;SDS011;9489;50.948;3.114;2023-11-18T08:19:59;15.68;;;11.32;;
18720;SDS011;9489;50.948;3.114;2023-11-18T08:22:25;16.65;;;11.07;;
18720;SDS011;9489;50.948;3.114;2023-11-18T08:24:50;11.75;;;9.82;;
18720;SDS011;9489;50.948;3.114;2023-11-18T08:27:16;14.05;;;10.68;;
18720;SDS011;9489;50.948;3.114;2023-11-18T08:29:41;14.40;;;10.65;;
18720;SDS011;9489;50.948;3.114;2023-11-18T08:32:07;12.20;;;10.10;;
18720;SDS011;9489;50.948;3.114;2023-11-18T08:34:36;12.52;;;10.73;;
18720;SDS011;9489;50.948;3.114;2023-11-18T08:37:05;16.05;;;10.80;;
18720;SDS011;9489;50.948;3.114;2023-11-18T08:39:31;12.52;;;9.98;;
18720;SDS011;9489;50.948;3.114;2023-11-18T08:41:57;11.85;;;9.32;;
18720;SDS011;9489;50.948;3.114;2023-11-18T08:44:23;9.65;;;8.40;;
18720;SDS011;9489;50.948;3.114;2023-11-18T08:46:52;9.60;;;8.65;;
18720;SDS011;9489;50.948;3.114;2023-11-18T08:49:18;9.77;;;8.57;;
18720;SDS011;9489;50.948;3.114;2023-11-18T08:51:47;12.95;;;9.13;;
18720;SDS011;9489;50.948;3.114;2023-11-18T08:54:23;12.32;;;8.95;;
18720;SDS011;9489;50.948;3.114;2023-11-18T08:56:51;11.15;;;8.50;;
18720;SDS011;9489;50.948;3.114;2023-11-18T08:59:18;10.18;;;7.70;;
18720;SDS011;9489;50.948;3.114;2023-11-18T09:01:49;12.18;;;8.88;;
18720;SDS011;9489;50.948;3.114;2023-11-18T09:04:22;11.52;;;8.60;;
18720;SDS011;9489;50.948;3.114;2023-11-18T09:06:48;12.55;;;8.52;;
18720;SDS011;9489;50.948;3.114;2023-11-18T09:09:16;10.27;;;8.18;;
18720;SDS011;9489;50.948;3.114;2023-11-18T09:11:43;9.40;;;8.18;;
18720;SDS011;9489;50.948;3.114;2023-11-18T09:14:09;8.80;;;7.93;;
18720;SDS011;9489;50.948;3.114;2023-11-18T09:16:36;11.02;;;8.68;;
18720;SDS011;9489;50.948;3.114;2023-11-18T09:19:04;9.27;;;7.57;;
18720;SDS011;9489;50.948;3.114;2023-11-18T09:21:31;11.05;;;8.60;;
18720;SDS011;9489;50.948;3.114;2023-11-18T09:24:00;8.55;;;7.30;;
18720;SDS011;9489;50.948;3.114;2023-11-18T09:26:37;10.07;;;7.90;;
18720;SDS011;9489;50.948;3.114;2023-11-18T09:29:03;8.23;;;7.43;;
18720;SDS011;9489;50.948;3.114;2023-11-18T09:31:28;8.90;;;7.45;;
18720;SDS011;9489;50.948;3.114;2023-11-18T09:33:56;9.13;;;7.65;;
18720;SDS011;9489;50.948;3.114;2023-11-18T09:36:22;9.63;;;7.10;;
18720;SDS011;9489;50.948;3.114;2023-11-18T09:38:48;8.38;;;7.38;;
18720;SDS011;9489;50.948;3.114;2023-11-18T09:41:14;9.15;;;6.97;;
18720;SDS011;9489;50.948;3.114;2023-11-18T09:43:44;7.80;;;6.97;;
18720;SDS011;9489;50.948;3.114;2023-11-18T09:46:11;8.65;;;7.10;;
18720;SDS011;9489;50.948;3.114;2023-11-18T09:48:44;10.15;;;8.05;;
18720;SDS011;9489;50.948;3.114;2023-11-18T09:51:20;11.30;;;7.57;;
18720;SDS011;9489;50.948;3.114;2023-11-18T09:53:51;7.35;;;6.65;;
18720;SDS011;9489;50.948;3.114;2023-11-18T09:59:31;8.50;;;7.65;;
18720;SDS011;9489;50.948;3.114;2023-11-18T10:02:08;8.45;;;7.50;;
18720;SDS011;9489;50.948;3.114;2023-11-18T10:04:35;7.70;;;6.63;;
18720;SDS011;9489;50.948;3.114;2023-11-18T10:07:05;6.63;;;6.03;;
18720;SDS011;9489;50.948;3.114;2023-11-18T10:09:36;7.10;;;6.40;;
18720;SDS011;9489;50.948;3.114;2023-11-18T10:12:05;8.30;;;7.60;;
18720;SDS011;9489;50.948;3.114;2023-11-18T10:14:35;7.85;;;5.80;;
18720;SDS011;9489;50.948;3.114;2023-11-18T10:17:05;6.45;;;5.15;;
18720;SDS011;9489;50.948;3.114;2023-11-18T10:22:37;7.18;;;5.18;;
18720;SDS011;9489;50.948;3.114;2023-11-18T10:25:03;5.05;;;4.60;;
18720;SDS011;9489;50.948;3.114;2023-11-18T10:27:31;5.38;;;4.60;;
18720;SDS011;9489;50.948;3.114;2023-11-18T10:30:03;4.50;;;3.90;;
18720;SDS011;9489;50.948;3.114;2023-11-18T10:32:30;4.57;;;3.95;;
18720;SDS011;9489;50.948;3.114;2023-11-18T10:35:00;3.95;;;3.65;;
18720;SDS011;9489;50.948;3.114;2023-11-18T10:37:29;3.58;;;3.28;;
18720;SDS011;9489;50.948;3.114;2023-11-18T10:39:56;4.78;;;3.58;;
18720;SDS011;9489;50.948;3.114;2023-11-18T10:42:25;3.80;;;3.40;;
18720;SDS011;9489;50.948;3.114;2023-11-18T10:44:54;3.53;;;3.22;;
18720;SDS011;9489;50.948;3.114;2023-11-18T10:47:24;4.75;;;4.35;;
18720;SDS011;9489;50.948;3.114;2023-11-18T10:49:51;3.85;;;3.55;;
18720;SDS011;9489;50.948;3.114;2023-11-18T10:52:18;4.85;;;3.30;;
18720;SDS011;9489;50.948;3.114;2023-11-18T10:54:54;4.32;;;3.90;;
18720;SDS011;9489;50.948;3.114;2023-11-18T10:57:21;4.75;;;4.35;;
18720;SDS011;9489;50.948;3.114;2023-11-18T11:00:03;3.65;;;3.17;;
18720;SDS011;9489;50.948;3.114;2023-11-18T11:02:41;2.58;;;2.38;;
18720;SDS011;9489;50.948;3.114;2023-11-18T11:05:10;3.40;;;3.10;;
18720;SDS011;9489;50.948;3.114;2023-11-18T11:07:44;3.90;;;2.92;;
18720;SDS011;9489;50.948;3.114;2023-11-18T11:10:10;3.45;;;3.15;;
18720;SDS011;9489;50.948;3.114;2023-11-18T11:12:43;3.58;;;3.28;;
18720;SDS011;9489;50.948;3.114;2023-11-18T11:15:20;5.13;;;3.50;;
18720;SDS011;9489;50.948;3.114;2023-11-18T11:17:48;3.33;;;3.03;;
18720;SDS011;9489;50.948;3.114;2023-11-18T11:20:22;4.00;;;3.08;;
18720;SDS011;9489;50.948;3.114;2023-11-18T11:25:55;2.95;;;2.75;;
18720;SDS011;9489;50.948;3.114;2023-11-18T11:31:39;3.22;;;3.03;;
18720;SDS011;9489;50.948;3.114;2023-11-18T11:34:18;5.35;;;4.95;;
18720;SDS011;9489;50.948;3.114;2023-11-18T11:36:48;5.03;;;4.63;;
18720;SDS011;9489;50.948;3.114;2023-11-18T11:39:16;3.50;;;3.08;;
18720;SDS011;9489;50.948;3.114;2023-11-18T11:41:46;3.80;;;3.50;;
18720;SDS011;9489;50.948;3.114;2023-11-18T11:44:16;3.90;;;3.60;;
18720;SDS011;9489;50.948;3.114;2023-11-18T11:46:45;2.45;;;2.13;;
18720;SDS011;9489;50.948;3.114;2023-11-18T11:49:18;4.40;;;3.38;;
18720;SDS011;9489;50.948;3.114;2023-11-18T11:54:27;3.47;;;3.17;;
18720;SDS011;9489;50.948;3.114;2023-11-18T11:56:57;2.90;;;2.70;;
18720;SDS011;9489;50.948;3.114;2023-11-18T11:59:35;6.20;;;5.60;;
18720;SDS011;9489;50.948;3.114;2023-11-18T12:02:02;2.65;;;2.45;;
18720;SDS011;9489;50.948;3.114;2023-11-18T12:04:33;5.68;;;5.18;;
18720;SDS011;9489;50.948;3.114;2023-11-18T12:07:02;5.30;;;4.90;;
18720;SDS011;9489;50.948;3.114;2023-11-18T12:09:30;4.32;;;3.95;;
18720;SDS011;9489;50.948;3.114;2023-11-18T12:12:03;3.00;;;2.78;;
18720;SDS011;9489;50.948;3.114;2023-11-18T12:14:31;3.42;;;3.20;;
18720;SDS011;9489;50.948;3.114;2023-11-18T12:17:00;3.45;;;3.25;;
18720;SDS011;9489;50.948;3.114;2023-11-18T12:19:37;3.60;;;3.30;;
18720;SDS011;9489;50.948;3.114;2023-11-18T12:22:19;4.07;;;3.78;;
18720;SDS011;9489;50.948;3.114;2023-11-18T12:27:41;3.60;;;3.40;;
18720;SDS011;9489;50.948;3.114;2023-11-18T12:35:29;8.00;;;7.30;;
18720;SDS011;9489;50.948;3.114;2023-11-18T12:41:10;14.23;;;12.38;;
18720;SDS011;9489;50.948;3.114;2023-11-18T12:49:44;8.38;;;7.68;;
18720;SDS011;9489;50.948;3.114;2023-11-18T12:52:15;7.10;;;6.53;;
18720;SDS011;9489;50.948;3.114;2023-11-18T12:54:44;6.70;;;6.20;;
18720;SDS011;9489;50.948;3.114;2023-11-18T12:57:15;6.32;;;5.78;;
18720;SDS011;9489;50.948;3.114;2023-11-18T12:59:41;6.40;;;6.00;;
18720;SDS011;9489;50.948;3.114;2023-11-18T13:02:08;5.75;;;5.25;;
18720;SDS011;9489;50.948;3.114;2023-11-18T13:04:40;6.43;;;5.75;;
18720;SDS011;9489;50.948;3.114;2023-11-18T13:07:06;6.13;;;5.63;;
18720;SDS011;9489;50.948;3.114;2023-11-18T13:09:33;6.22;;;5.80;;
18720;SDS011;9489;50.948;3.114;2023-11-18T13:12:01;5.90;;;5.50;;
18720;SDS011;9489;50.948;3.114;2023-11-18T13:14:34;5.60;;;5.20;;
18720;SDS011;9489;50.948;3.114;2023-11-18T13:17:04;5.97;;;5.57;;
18720;SDS011;9489;50.948;3.114;2023-11-18T13:19:33;5.80;;;5.40;;
18720;SDS011;9489;50.948;3.114;2023-11-18T13:22:00;12.93;;;11.40;;
18720;SDS011;9489;50.948;3.114;2023-11-18T13:24:28;13.38;;;12.02;;
18720;SDS011;9489;50.948;3.114;2023-11-18T13:26:57;11.45;;;10.40;;
18720;SDS011;9489;50.948;3.114;2023-11-18T13:29:28;13.90;;;12.50;;
18720;SDS011;9489;50.948;3.114;2023-11-18T13:31:56;15.73;;;14.23;;
18720;SDS011;9489;50.948;3.114;2023-11-18T13:34:23;17.13;;;15.48;;
18720;SDS011;9489;50.948;3.114;2023-11-18T13:36:48;8.00;;;7.40;;
18720;SDS011;9489;50.948;3.114;2023-11-18T13:39:20;9.95;;;9.20;;
18720;SDS011;9489;50.948;3.114;2023-11-18T13:41:49;9.18;;;8.38;;
18720;SDS011;9489;50.948;3.114;2023-11-18T13:44:34;7.57;;;7.07;;
18720;SDS011;9489;50.948;3.114;2023-11-18T13:47:06;6.93;;;6.43;;
18720;SDS011;9489;50.948;3.114;2023-11-18T13:49:36;5.97;;;5.47;;
18720;SDS011;9489;50.948;3.114;2023-11-18T13:52:06;7.15;;;6.55;;
18720;SDS011;9489;50.948;3.114;2023-11-18T13:54:37;16.65;;;15.13;;
18720;SDS011;9489;50.948;3.114;2023-11-18T13:57:03;6.70;;;6.20;;
18720;SDS011;9489;50.948;3.114;2023-11-18T13:59:31;6.53;;;6.03;;
18720;SDS011;9489;50.948;3.114;2023-11-18T14:01:57;6.80;;;6.20;;
18720;SDS011;9489;50.948;3.114;2023-11-18T14:04:30;6.93;;;5.47;;
18720;SDS011;9489;50.948;3.114;2023-11-18T14:06:58;7.25;;;5.32;;
18720;SDS011;9489;50.948;3.114;2023-11-18T14:09:33;8.23;;;7.30;;
18720;SDS011;9489;50.948;3.114;2023-11-18T14:12:02;6.38;;;5.78;;
18720;SDS011;9489;50.948;3.114;2023-11-18T14:14:31;5.95;;;5.28;;
18720;SDS011;9489;50.948;3.114;2023-11-18T14:16:57;6.13;;;5.10;;
18720;SDS011;9489;50.948;3.114;2023-11-18T14:19:24;5.72;;;5.22;;
18720;SDS011;9489;50.948;3.114;2023-11-18T14:21:53;7.93;;;5.72;;
18720;SDS011;9489;50.948;3.114;2023-11-18T14:24:18;4.57;;;4.28;;
18720;SDS011;9489;50.948;3.114;2023-11-18T14:26:44;4.90;;;4.45;;
18720;SDS011;9489;50.948;3.114;2023-11-18T14:29:10;5.78;;;4.25;;
18720;SDS011;9489;50.948;3.114;2023-11-18T14:31:39;4.72;;;4.32;;
18720;SDS011;9489;50.948;3.114;2023-11-18T14:34:04;5.70;;;3.88;;
18720;SDS011;9489;50.948;3.114;2023-11-18T14:36:30;4.60;;;4.20;;
18720;SDS011;9489;50.948;3.114;2023-11-18T14:38:56;5.85;;;3.90;;
18720;SDS011;9489;50.948;3.114;2023-11-18T14:41:23;4.05;;;3.75;;
18720;SDS011;9489;50.948;3.114;2023-11-18T14:43:54;4.10;;;3.78;;
18720;SDS011;9489;50.948;3.114;2023-11-18T14:46:20;4.22;;;3.80;;
18720;SDS011;9489;50.948;3.114;2023-11-18T14:48:45;4.28;;;3.67;;
18720;SDS011;9489;50.948;3.114;2023-11-18T14:51:11;4.05;;;3.63;;
18720;SDS011;9489;50.948;3.114;2023-11-18T14:53:37;6.53;;;5.68;;
18720;SDS011;9489;50.948;3.114;2023-11-18T14:56:03;7.43;;;5.95;;
18720;SDS011;9489;50.948;3.114;2023-11-18T14:58:31;8.02;;;7.32;;
18720;SDS011;9489;50.948;3.114;2023-11-18T15:01:03;11.40;;;9.90;;
18720;SDS011;9489;50.948;3.114;2023-11-18T15:03:32;9.90;;;8.90;;
18720;SDS011;9489;50.948;3.114;2023-11-18T15:05:58;9.05;;;8.15;;
18720;SDS011;9489;50.948;3.114;2023-11-18T15:08:23;6.60;;;6.10;;
18720;SDS011;9489;50.948;3.114;2023-11-18T15:10:49;9.52;;;8.73;;
18720;SDS011;9489;50.948;3.114;2023-11-18T15:13:15;5.38;;;4.88;;
18720;SDS011;9489;50.948;3.114;2023-11-18T15:15:42;4.60;;;4.30;;
18720;SDS011;9489;50.948;3.114;2023-11-18T15:18:10;4.28;;;3.97;;
18720;SDS011;9489;50.948;3.114;2023-11-18T15:20:42;4.25;;;3.90;;
18720;SDS011;9489;50.948;3.114;2023-11-18T15:23:11;3.97;;;3.78;;
18720;SDS011;9489;50.948;3.114;2023-11-18T15:25:38;5.05;;;4.45;;
18720;SDS011;9489;50.948;3.114;2023-11-18T15:28:05;4.47;;;4.18;;
18720;SDS011;9489;50.948;3.114;2023-11-18T15:30:34;10.05;;;6.50;;